createdAt,value
2018-03-30T00:01:36.838Z,7.30
2018-03-30T00:04:04.275Z,7.70
2018-03-30T00:06:31.752Z,8.60
2018-03-30T00:08:59.188Z,10.90
2018-03-30T00:11:28.415Z,11.25
2018-03-30T00:13:55.842Z,11.30
2018-03-30T00:16:23.259Z,9.93
2018-03-30T00:18:50.878Z,11.73
2018-03-30T00:21:18.302Z,11.90
2018-03-30T00:23:45.724Z,11.55
2018-03-30T00:26:13.148Z,12.07
2018-03-30T00:28:40.647Z,11.43
2018-03-30T00:31:08.158Z,11.85
2018-03-30T00:33:35.612Z,10.65
2018-03-30T00:36:03.073Z,9.40
2018-03-30T00:38:30.482Z,9.85
2018-03-30T00:40:57.987Z,9.95
2018-03-30T00:43:25.399Z,8.50
2018-03-30T00:45:52.891Z,10.48
2018-03-30T00:48:20.312Z,11.27
2018-03-30T00:50:48.639Z,9.95
2018-03-30T00:53:27.783Z,9.30
2018-03-30T00:55:55.313Z,8.85
2018-03-30T00:58:22.771Z,8.05
2018-03-30T01:00:50.211Z,9.82
2018-03-30T01:03:17.627Z,9.35
2018-03-30T01:05:45.136Z,9.90
2018-03-30T01:08:12.556Z,8.00
2018-03-30T01:10:40.048Z,10.70
2018-03-30T01:13:07.476Z,15.30
2018-03-30T01:15:34.968Z,14.05
2018-03-30T01:18:02.384Z,16.98
2018-03-30T01:20:29.811Z,17.25
2018-03-30T01:22:57.234Z,20.27
2018-03-30T01:25:24.700Z,18.80
2018-03-30T01:27:52.126Z,9.55
2018-03-30T01:30:19.534Z,11.80
2018-03-30T01:32:47.159Z,18.80
2018-03-30T01:35:14.582Z,16.30
2018-03-30T01:37:42.072Z,17.05
2018-03-30T01:40:09.494Z,12.77
2018-03-30T01:42:36.926Z,13.60
2018-03-30T01:45:04.347Z,19.90
2018-03-30T01:47:31.779Z,19.98
2018-03-30T01:49:59.227Z,18.48
2018-03-30T01:52:26.718Z,18.58
2018-03-30T01:54:54.168Z,17.60
2018-03-30T01:57:21.602Z,17.67
2018-03-30T01:59:49.179Z,18.08
2018-03-30T02:02:16.619Z,16.77
2018-03-30T02:04:44.050Z,16.33
2018-03-30T02:07:11.474Z,13.95
2018-03-30T02:09:38.890Z,17.08
2018-03-30T02:12:06.459Z,17.52
2018-03-30T02:14:33.882Z,16.00
2018-03-30T02:17:01.376Z,18.15
2018-03-30T02:19:28.828Z,16.33
2018-03-30T02:21:56.266Z,15.52
2018-03-30T02:24:23.687Z,13.23
2018-03-30T02:26:52.119Z,12.15
2018-03-30T02:29:19.546Z,16.33
2018-03-30T02:31:47.039Z,13.25
2018-03-30T02:34:14.477Z,14.18
2018-03-30T02:36:41.897Z,13.88
2018-03-30T02:39:09.490Z,17.02
2018-03-30T02:41:37.149Z,18.17
2018-03-30T02:44:04.623Z,15.52
2018-03-30T02:46:32.048Z,16.02
2018-03-30T02:48:59.472Z,16.70
2018-03-30T02:51:26.887Z,14.35
2018-03-30T02:53:54.327Z,15.60
2018-03-30T02:56:21.835Z,14.05
2018-03-30T02:58:49.264Z,15.45
2018-03-30T03:01:16.729Z,14.10
2018-03-30T03:03:44.150Z,13.48
2018-03-30T03:06:11.636Z,14.05
2018-03-30T03:08:39.187Z,13.23
2018-03-30T03:11:06.648Z,15.57
2018-03-30T03:13:34.095Z,12.52
2018-03-30T03:16:01.521Z,13.10
2018-03-30T03:18:28.932Z,11.85
2018-03-30T03:20:56.375Z,11.90
2018-03-30T03:23:23.800Z,11.82
2018-03-30T03:25:51.287Z,12.27
2018-03-30T03:28:18.851Z,11.93
2018-03-30T03:30:46.322Z,11.15
2018-03-30T03:33:14.047Z,11.52
2018-03-30T03:35:41.507Z,10.60
2018-03-30T03:38:08.922Z,10.48
2018-03-30T03:40:36.355Z,10.75
2018-03-30T03:43:03.872Z,9.07
2018-03-30T03:45:32.255Z,10.55
2018-03-30T03:47:59.688Z,10.05
2018-03-30T03:50:27.119Z,8.60
2018-03-30T03:52:54.521Z,9.55
2018-03-30T03:55:21.985Z,9.40
2018-03-30T03:57:49.434Z,8.55
2018-03-30T04:00:16.851Z,8.35
2018-03-30T04:02:45.039Z,8.13
2018-03-30T04:05:12.448Z,9.30
2018-03-30T04:07:39.966Z,8.65
2018-03-30T04:10:07.383Z,9.32
2018-03-30T04:12:34.803Z,10.52
2018-03-30T04:15:02.242Z,8.73
2018-03-30T04:17:29.678Z,9.20
2018-03-30T04:19:57.259Z,10.80
2018-03-30T04:22:24.689Z,9.82
2018-03-30T04:24:52.143Z,9.68
2018-03-30T04:27:31.914Z,9.48
2018-03-30T04:29:59.368Z,8.65
2018-03-30T04:32:26.783Z,8.93
2018-03-30T04:34:54.276Z,8.55
2018-03-30T04:37:21.694Z,8.70
2018-03-30T04:39:49.108Z,7.97
2018-03-30T04:42:16.656Z,8.35
2018-03-30T04:44:44.094Z,12.55
2018-03-30T04:47:11.525Z,8.55
2018-03-30T04:49:39.010Z,9.82
2018-03-30T04:52:06.423Z,7.28
2018-03-30T04:54:33.936Z,10.07
2018-03-30T04:57:01.358Z,7.95
2018-03-30T04:59:28.791Z,14.38
2018-03-30T05:01:56.197Z,9.05
2018-03-30T05:04:23.760Z,9.38
2018-03-30T05:06:51.166Z,9.18
2018-03-30T05:09:18.599Z,11.65
2018-03-30T05:11:46.007Z,11.23
2018-03-30T05:14:13.491Z,7.62
2018-03-30T05:16:40.910Z,7.18
2018-03-30T05:19:09.091Z,9.73
2018-03-30T05:21:36.563Z,6.78
2018-03-30T05:24:04.026Z,8.63
2018-03-30T05:26:31.479Z,8.27
2018-03-30T05:28:58.939Z,7.85
2018-03-30T05:31:26.359Z,10.02
2018-03-30T05:33:53.856Z,9.45
2018-03-30T05:36:21.301Z,11.98
2018-03-30T05:38:48.718Z,9.57
2018-03-30T05:41:16.136Z,8.23
2018-03-30T05:43:43.559Z,11.15
2018-03-30T05:46:11.127Z,8.07
2018-03-30T05:48:38.542Z,7.12
2018-03-30T05:51:06.043Z,8.07
2018-03-30T05:53:33.499Z,6.93
2018-03-30T05:56:00.935Z,10.95
2018-03-30T05:58:28.343Z,8.88
2018-03-30T06:00:55.774Z,6.12
2018-03-30T06:03:23.323Z,7.62
2018-03-30T06:05:50.779Z,8.23
2018-03-30T06:08:18.188Z,7.30
2018-03-30T06:10:45.685Z,7.53
2018-03-30T06:13:13.104Z,8.07
2018-03-30T06:15:40.539Z,7.43
2018-03-30T06:18:08.851Z,11.02
2018-03-30T06:20:37.048Z,8.82
2018-03-30T06:23:04.467Z,10.10
2018-03-30T06:25:31.874Z,10.38
2018-03-30T06:27:59.322Z,9.52
2018-03-30T06:30:26.783Z,10.93
2018-03-30T06:32:54.343Z,8.50
2018-03-30T06:35:21.753Z,8.27
2018-03-30T06:37:49.187Z,9.63
2018-03-30T06:40:16.607Z,12.77
2018-03-30T06:42:44.062Z,11.32
2018-03-30T06:45:11.616Z,10.40
2018-03-30T06:47:39.087Z,11.20
2018-03-30T06:50:06.507Z,12.07
2018-03-30T06:52:33.939Z,11.70
2018-03-30T06:55:01.357Z,14.75
2018-03-30T06:57:28.904Z,11.77
2018-03-30T06:59:56.347Z,16.05
2018-03-30T07:02:23.807Z,10.85
2018-03-30T07:04:51.231Z,11.88
2018-03-30T07:07:19.458Z,13.00
2018-03-30T07:09:46.912Z,13.93
2018-03-30T07:12:14.590Z,14.52
2018-03-30T07:14:42.019Z,14.63
2018-03-30T07:17:09.465Z,12.35
2018-03-30T07:19:36.906Z,15.05
2018-03-30T07:22:04.323Z,13.18
2018-03-30T07:24:31.919Z,13.93
2018-03-30T07:26:59.322Z,13.07
2018-03-30T07:29:26.758Z,11.77
2018-03-30T07:31:54.178Z,11.10
2018-03-30T07:34:21.616Z,12.02
2018-03-30T07:36:49.124Z,11.50
2018-03-30T07:39:16.575Z,11.50
2018-03-30T07:41:44.036Z,10.57
2018-03-30T07:44:11.809Z,14.75
2018-03-30T07:46:39.259Z,11.10
2018-03-30T07:49:06.709Z,15.02
2018-03-30T07:51:34.162Z,12.30
2018-03-30T07:54:01.616Z,12.07
2018-03-30T07:56:29.062Z,11.32
2018-03-30T07:58:56.486Z,11.98
2018-03-30T08:01:23.932Z,10.45
2018-03-30T08:03:52.150Z,11.82
2018-03-30T08:06:19.742Z,10.70
2018-03-30T08:08:47.216Z,11.27
2018-03-30T08:11:15.435Z,11.82
2018-03-30T08:13:43.112Z,10.02
2018-03-30T08:16:10.774Z,13.85
2018-03-30T08:18:38.212Z,12.50
2018-03-30T08:21:05.686Z,12.83
2018-03-30T08:23:33.256Z,12.03
2018-03-30T08:26:00.887Z,11.00
2018-03-30T08:28:28.469Z,13.87
2018-03-30T08:30:55.900Z,12.57
2018-03-30T08:33:23.383Z,12.70
2018-03-30T08:35:50.827Z,12.80
2018-03-30T08:38:18.255Z,12.50
2018-03-30T08:40:45.711Z,12.50
2018-03-30T08:43:13.517Z,11.93
2018-03-30T08:45:40.930Z,13.30
2018-03-30T08:48:08.367Z,17.57
2018-03-30T08:50:35.868Z,13.60
2018-03-30T08:53:03.331Z,12.60
2018-03-30T08:55:30.790Z,13.50
2018-03-30T08:57:58.230Z,15.13
2018-03-30T09:00:25.652Z,12.27
2018-03-30T09:02:53.156Z,11.70
2018-03-30T09:05:20.614Z,12.17
2018-03-30T09:07:48.081Z,12.73
2018-03-30T09:10:15.531Z,10.90
2018-03-30T09:12:42.971Z,12.97
2018-03-30T09:15:10.394Z,13.10
2018-03-30T09:17:37.984Z,13.30
2018-03-30T09:20:05.567Z,12.27
2018-03-30T09:22:33.128Z,16.17
2018-03-30T09:25:00.572Z,12.63
2018-03-30T09:27:28.005Z,15.10
2018-03-30T09:29:55.436Z,12.13
2018-03-30T09:32:23.886Z,13.13
2018-03-30T09:34:51.291Z,11.60
2018-03-30T09:37:18.775Z,11.23
2018-03-30T09:39:46.202Z,12.30
2018-03-30T09:42:13.640Z,12.80
2018-03-30T09:44:41.079Z,13.40
2018-03-30T09:47:08.511Z,14.17
2018-03-30T09:49:36.060Z,12.47
2018-03-30T09:52:03.499Z,13.10
2018-03-30T09:54:30.926Z,12.13
2018-03-30T09:56:58.345Z,11.47
2018-03-30T09:59:25.877Z,11.90
2018-03-30T10:01:53.301Z,12.40
2018-03-30T10:04:23.577Z,12.90
2018-03-30T10:06:51.028Z,12.37
2018-03-30T10:09:18.485Z,12.50
2018-03-30T10:11:45.974Z,12.03
2018-03-30T10:14:13.382Z,13.03
2018-03-30T10:16:41.046Z,13.30
2018-03-30T10:19:08.490Z,15.17
2018-03-30T10:21:36.025Z,14.27
2018-03-30T10:24:03.486Z,11.90
2018-03-30T10:26:31.800Z,12.60
2018-03-30T10:28:59.357Z,11.63
2018-03-30T10:31:27.115Z,12.10
2018-03-30T10:33:54.566Z,14.80
2018-03-30T10:36:21.979Z,7.97
2018-03-30T10:38:49.484Z,8.73
2018-03-30T10:41:17.097Z,7.37
2018-03-30T10:43:44.611Z,5.80
2018-03-30T10:46:12.099Z,5.63
2018-03-30T10:48:39.907Z,6.63
2018-03-30T10:51:07.346Z,7.33
2018-03-30T10:53:34.763Z,6.40
2018-03-30T10:56:02.223Z,6.67
2018-03-30T10:58:29.634Z,7.20
2018-03-30T11:00:57.048Z,6.80
2018-03-30T11:03:24.549Z,5.97
2018-03-30T11:05:52.117Z,6.73
2018-03-30T11:08:19.564Z,5.93
2018-03-30T11:10:46.980Z,6.33
2018-03-30T11:13:15.410Z,6.60
2018-03-30T11:15:42.832Z,6.53
2018-03-30T11:18:10.308Z,5.33
2018-03-30T11:20:37.767Z,5.30
2018-03-30T11:23:05.231Z,5.87
2018-03-30T11:25:32.680Z,5.10
2018-03-30T11:28:00.138Z,5.67
2018-03-30T11:30:27.575Z,5.70
2018-03-30T11:32:55.059Z,6.53
2018-03-30T11:35:22.510Z,5.73
2018-03-30T11:37:49.939Z,5.93
2018-03-30T11:40:17.351Z,5.23
2018-03-30T11:42:44.793Z,5.80
2018-03-30T11:45:12.334Z,6.10
2018-03-30T11:47:39.751Z,6.00
2018-03-30T11:50:07.168Z,7.60
2018-03-30T11:52:34.602Z,4.90
2018-03-30T11:55:02.024Z,4.53
2018-03-30T11:57:30.236Z,5.43
2018-03-30T11:59:57.686Z,4.53
2018-03-30T12:02:25.119Z,4.60
2018-03-30T12:04:52.656Z,4.50
2018-03-30T12:07:20.379Z,5.10
2018-03-30T12:09:47.783Z,5.00
2018-03-30T12:12:16.203Z,6.60
2018-03-30T12:14:43.653Z,5.50
2018-03-30T12:17:11.110Z,7.07
2018-03-30T12:19:38.562Z,4.67
2018-03-30T12:22:05.970Z,4.90
2018-03-30T12:24:33.384Z,4.67
2018-03-30T12:27:00.832Z,5.97
2018-03-30T12:29:28.255Z,4.87
2018-03-30T12:31:56.463Z,4.30
2018-03-30T12:34:24.840Z,4.20
2018-03-30T12:36:52.247Z,4.60
2018-03-30T12:39:19.777Z,4.10
2018-03-30T12:41:47.387Z,4.47
2018-03-30T12:44:14.974Z,4.70
2018-03-30T12:46:42.424Z,4.70
2018-03-30T12:49:09.844Z,3.53
2018-03-30T12:51:37.352Z,4.77
2018-03-30T12:54:05.116Z,4.13
2018-03-30T12:56:32.576Z,4.10
2018-03-30T12:58:59.989Z,3.90
2018-03-30T13:01:27.407Z,4.20
2018-03-30T13:03:55.783Z,4.20
2018-03-30T13:06:23.221Z,4.60
2018-03-30T13:08:50.670Z,4.67
2018-03-30T13:11:18.221Z,5.57
2018-03-30T13:13:45.636Z,6.03
2018-03-30T13:16:13.053Z,5.13
2018-03-30T13:18:40.592Z,7.80
2018-03-30T13:21:08.031Z,4.03
2018-03-30T13:23:35.500Z,4.90
2018-03-30T13:26:02.930Z,4.77
2018-03-30T13:28:30.343Z,4.63
2018-03-30T13:30:57.776Z,4.27
2018-03-30T13:33:25.326Z,4.73
2018-03-30T13:35:52.787Z,4.90
2018-03-30T13:38:20.211Z,4.40
2018-03-30T13:40:47.627Z,4.50
2018-03-30T13:43:15.048Z,4.77
2018-03-30T13:45:42.575Z,5.47
2018-03-30T13:48:09.983Z,6.40
2018-03-30T13:50:38.237Z,5.70
2018-03-30T13:53:10.506Z,4.87
2018-03-30T13:55:38.749Z,5.90
2018-03-30T13:58:07.884Z,5.77
2018-03-30T14:00:37.892Z,4.77
2018-03-30T14:03:12.927Z,8.50
2018-03-30T14:05:43.914Z,6.07
2018-03-30T14:08:15.629Z,7.83
2018-03-30T14:10:48.651Z,7.83
2018-03-30T14:13:16.268Z,6.73
2018-03-30T14:15:45.287Z,6.30
2018-03-30T14:18:23.542Z,4.30
2018-03-30T14:21:01.627Z,2.83
2018-03-30T14:23:30.730Z,2.70
2018-03-30T14:26:01.960Z,4.07
2018-03-30T14:28:31.376Z,5.73
2018-03-30T14:30:58.778Z,5.10
2018-03-30T14:33:27.712Z,4.67
2018-03-30T14:35:56.918Z,3.80
2018-03-30T14:38:30.339Z,4.63
2018-03-30T14:40:57.939Z,4.47
2018-03-30T14:43:28.142Z,4.70
2018-03-30T14:46:02.044Z,5.67
2018-03-30T14:48:32.278Z,3.10
2018-03-30T14:51:11.313Z,5.23
2018-03-30T14:53:48.691Z,5.93
2018-03-30T14:59:15.683Z,5.13
2018-03-30T15:01:43.822Z,5.47
2018-03-30T15:04:15.784Z,4.17
2018-03-30T15:07:04.006Z,3.80
2018-03-30T15:09:37.323Z,4.57
2018-03-30T15:12:26.287Z,4.17
2018-03-30T15:14:57.443Z,3.30
2018-03-30T15:17:25.240Z,3.70
2018-03-30T15:20:07.548Z,3.10
2018-03-30T15:22:36.507Z,4.33
2018-03-30T15:25:16.431Z,3.70
2018-03-30T15:27:58.952Z,4.80
2018-03-30T15:30:27.783Z,5.87
2018-03-30T15:32:55.971Z,7.03
2018-03-30T15:35:24.999Z,7.83
2018-03-30T15:37:52.451Z,6.20
2018-03-30T15:40:22.348Z,8.30
2018-03-30T15:43:05.662Z,7.27
2018-03-30T15:45:33.869Z,8.63
2018-03-30T15:48:01.333Z,12.97
2018-03-30T15:50:28.941Z,9.07
2018-03-30T15:52:56.343Z,9.63
2018-03-30T15:55:23.775Z,8.03
2018-03-30T15:57:51.403Z,7.30
2018-03-30T16:00:20.475Z,5.93
2018-03-30T16:02:47.906Z,8.20
2018-03-30T16:05:15.335Z,6.27
2018-03-30T16:07:42.805Z,7.50
2018-03-30T16:10:23.595Z,11.20
2018-03-30T16:12:51.043Z,7.50
2018-03-30T16:15:18.703Z,9.80
2018-03-30T16:17:46.115Z,6.83
2018-03-30T16:20:13.060Z,7.63
2018-03-30T16:22:40.147Z,7.70
2018-03-30T16:25:07.089Z,6.70
2018-03-30T16:27:34.141Z,7.63
2018-03-30T16:30:01.296Z,8.10
2018-03-30T16:32:28.264Z,8.30
2018-03-30T16:34:55.216Z,7.87
2018-03-30T16:37:23.010Z,8.73
2018-03-30T16:39:50.089Z,11.60
2018-03-30T16:42:17.039Z,13.10
2018-03-30T16:44:43.989Z,10.20
2018-03-30T16:47:10.923Z,10.73
2018-03-30T16:49:37.875Z,10.47
2018-03-30T16:52:04.815Z,8.33
2018-03-30T16:54:31.853Z,8.50
2018-03-30T16:56:58.787Z,7.30
2018-03-30T16:59:25.718Z,7.27
2018-03-30T17:01:52.655Z,8.70
2018-03-30T17:04:19.588Z,8.53
2018-03-30T17:06:46.646Z,6.43
2018-03-30T17:09:13.579Z,7.93
2018-03-30T17:11:40.666Z,7.57
2018-03-30T17:14:07.643Z,6.30
2018-03-30T17:16:34.668Z,9.30
2018-03-30T17:19:01.823Z,10.23
2018-03-30T17:21:28.975Z,7.13
2018-03-30T17:23:55.920Z,8.93
2018-03-30T17:26:22.871Z,6.43
2018-03-30T17:28:49.808Z,6.73
2018-03-30T17:31:16.944Z,8.67
2018-03-30T17:33:43.964Z,6.77
2018-03-30T17:36:10.895Z,6.53
2018-03-30T17:38:37.831Z,8.87
2018-03-30T17:41:04.843Z,9.53
2018-03-30T17:43:31.787Z,7.90
2018-03-30T17:45:58.731Z,8.10
2018-03-30T17:48:25.714Z,5.83
2018-03-30T17:50:52.832Z,6.63
2018-03-30T17:53:20.056Z,6.47
2018-03-30T17:55:47.010Z,7.10
2018-03-30T17:58:13.950Z,8.00
2018-03-30T18:00:40.896Z,7.53
2018-03-30T18:03:07.816Z,8.13
2018-03-30T18:05:34.768Z,11.67
2018-03-30T18:08:01.695Z,8.17
2018-03-30T18:10:28.669Z,11.20
2018-03-30T18:12:55.585Z,11.73
2018-03-30T18:15:22.584Z,8.33
2018-03-30T18:17:49.523Z,15.47
2018-03-30T18:20:16.551Z,12.93
2018-03-30T18:22:43.524Z,9.20
2018-03-30T18:25:10.458Z,7.23
2018-03-30T18:27:37.386Z,8.00
2018-03-30T18:30:04.339Z,6.80
2018-03-30T18:32:31.276Z,6.57
2018-03-30T18:34:58.514Z,6.70
2018-03-30T18:37:25.722Z,5.90
2018-03-30T18:39:52.813Z,5.97
2018-03-30T18:42:19.765Z,6.43
2018-03-30T18:44:46.708Z,6.37
2018-03-30T18:47:13.658Z,5.00
2018-03-30T18:49:40.695Z,5.30
2018-03-30T18:52:07.645Z,5.20
2018-03-30T18:54:34.567Z,4.23
2018-03-30T18:57:01.507Z,6.40
2018-03-30T18:59:28.779Z,7.40
2018-03-30T19:01:55.722Z,5.37
2018-03-30T19:04:22.650Z,5.00
2018-03-30T19:06:49.605Z,7.83
2018-03-30T19:09:16.633Z,6.37
2018-03-30T19:11:43.575Z,6.70
2018-03-30T19:14:10.748Z,8.90
2018-03-30T19:16:37.704Z,7.40
2018-03-30T19:19:04.639Z,6.70
2018-03-30T19:21:31.634Z,6.83
2018-03-30T19:23:58.587Z,8.23
2018-03-30T19:26:26.286Z,9.60
2018-03-30T19:28:53.230Z,7.00
2018-03-30T19:31:20.587Z,5.40
2018-03-30T19:33:47.530Z,5.67
2018-03-30T19:36:14.475Z,5.13
2018-03-30T19:38:41.411Z,3.77
2018-03-30T19:41:08.534Z,3.87
2018-03-30T19:43:35.620Z,7.60
2018-03-30T19:46:02.559Z,4.00
2018-03-30T19:48:29.616Z,4.27
2018-03-30T19:50:56.552Z,2.53
2018-03-30T19:53:23.668Z,5.03
2018-03-30T19:55:50.816Z,3.47
2018-03-30T19:58:17.909Z,2.93
2018-03-30T20:00:44.834Z,5.33
2018-03-30T20:03:11.860Z,3.60
2018-03-30T20:05:39.051Z,4.77
2018-03-30T20:08:06.004Z,2.73
2018-03-30T20:10:33.035Z,2.60
2018-03-30T20:12:59.973Z,3.47
2018-03-30T20:15:26.912Z,3.00
2018-03-30T20:17:53.858Z,11.23
2018-03-30T20:20:21.011Z,8.97
2018-03-30T20:22:47.943Z,2.40
2018-03-30T20:25:14.882Z,2.60
2018-03-30T20:27:41.853Z,2.87
2018-03-30T20:30:08.806Z,2.97
2018-03-30T20:32:35.802Z,3.40
2018-03-30T20:35:02.758Z,2.93
2018-03-30T20:37:29.695Z,2.80
2018-03-30T20:39:56.622Z,3.37
2018-03-30T20:42:23.830Z,4.60
2018-03-30T20:44:50.975Z,5.97
2018-03-30T20:47:17.935Z,3.27
2018-03-30T20:49:44.879Z,3.43
2018-03-30T20:52:11.821Z,3.27
2018-03-30T20:54:38.760Z,3.20
2018-03-30T20:57:05.855Z,3.10
2018-03-30T20:59:32.940Z,3.87
2018-03-30T21:01:59.895Z,3.43
2018-03-30T21:04:26.949Z,6.10
2018-03-30T21:06:54.086Z,3.90
2018-03-30T21:09:21.012Z,4.03
2018-03-30T21:11:47.951Z,4.00
2018-03-30T21:14:14.980Z,3.43
2018-03-30T21:16:42.053Z,4.63
2018-03-30T21:19:09.170Z,3.87
2018-03-30T21:21:36.350Z,3.17
2018-03-30T21:24:03.516Z,3.10
2018-03-30T21:26:30.440Z,2.90
2018-03-30T21:28:57.380Z,3.13
2018-03-30T21:31:24.328Z,4.13
2018-03-30T21:33:51.496Z,4.37
2018-03-30T21:36:18.415Z,4.40
2018-03-30T21:38:45.346Z,4.80
2018-03-30T21:41:12.269Z,4.03
2018-03-30T21:43:39.207Z,4.20
2018-03-30T21:46:06.135Z,4.23
2018-03-30T21:48:33.066Z,3.90
2018-03-30T21:50:59.994Z,3.73
2018-03-30T21:53:26.921Z,3.57
2018-03-30T21:55:53.851Z,5.63
2018-03-30T21:58:20.818Z,5.63
2018-03-30T22:00:47.840Z,4.40
2018-03-30T22:03:15.546Z,7.57
2018-03-30T22:05:42.580Z,5.93
2018-03-30T22:08:09.729Z,7.23
2018-03-30T22:10:36.669Z,9.90
2018-03-30T22:13:03.599Z,4.13
2018-03-30T22:15:30.567Z,3.80
2018-03-30T22:17:57.687Z,4.73
2018-03-30T22:20:24.878Z,5.87
2018-03-30T22:22:52.018Z,6.53
2018-03-30T22:25:18.939Z,4.97
2018-03-30T22:27:46.348Z,3.40
2018-03-30T22:30:13.458Z,3.13
2018-03-30T22:32:40.396Z,3.30
2018-03-30T22:35:07.340Z,3.83
2018-03-30T22:37:34.270Z,3.90
2018-03-30T22:40:01.439Z,3.60
2018-03-30T22:42:28.594Z,3.57
2018-03-30T22:44:55.521Z,3.70
2018-03-30T22:47:22.464Z,3.55
2018-03-30T22:49:49.424Z,4.33
2018-03-30T22:52:16.359Z,4.27
2018-03-30T22:54:43.419Z,4.13
2018-03-30T22:57:10.434Z,4.60
2018-03-30T22:59:37.371Z,5.30
2018-03-30T23:02:04.486Z,6.27
2018-03-30T23:04:31.413Z,5.77
2018-03-30T23:06:58.547Z,7.10
2018-03-30T23:09:25.667Z,7.03
2018-03-30T23:11:52.598Z,7.43
2018-03-30T23:14:19.685Z,5.37
2018-03-30T23:16:46.750Z,5.00
2018-03-30T23:19:13.975Z,5.37
2018-03-30T23:21:40.983Z,4.30
2018-03-30T23:24:08.899Z,4.70
2018-03-30T23:26:35.827Z,5.30
2018-03-30T23:29:02.755Z,5.07
2018-03-30T23:31:29.679Z,5.17
2018-03-30T23:33:56.611Z,4.90
2018-03-30T23:36:23.539Z,5.07
2018-03-30T23:38:50.495Z,5.67
2018-03-30T23:41:17.411Z,4.90
2018-03-30T23:43:44.347Z,5.20
2018-03-30T23:46:11.388Z,5.07
2018-03-30T23:48:38.331Z,6.90
2018-03-30T23:51:05.383Z,5.37
2018-03-30T23:53:32.321Z,4.77
2018-03-30T23:55:59.244Z,5.70
2018-03-30T23:58:26.211Z,5.50
